createdAt,value
2022-12-16T00:03:31.715Z,23.25
2022-12-16T00:06:20.036Z,20.38
2022-12-16T00:09:07.211Z,19.95
2022-12-16T00:11:54.280Z,19.45
2022-12-16T00:14:41.738Z,19.30
2022-12-16T00:17:28.846Z,19.00
2022-12-16T00:20:15.948Z,18.48
2022-12-16T00:23:03.008Z,18.35
2022-12-16T00:25:50.117Z,19.10
2022-12-16T00:28:40.372Z,17.30
2022-12-16T00:31:28.038Z,17.98
2022-12-16T00:34:16.310Z,18.05
2022-12-16T00:37:03.374Z,17.38
2022-12-16T00:39:50.493Z,17.38
2022-12-16T00:42:37.488Z,17.85
2022-12-16T00:45:24.617Z,16.92
2022-12-16T00:48:13.111Z,16.65
2022-12-16T00:51:00.464Z,17.52
2022-12-16T00:53:47.536Z,16.95
2022-12-16T00:56:35.163Z,16.30
2022-12-16T00:59:22.280Z,16.27
2022-12-16T01:02:11.330Z,15.27
2022-12-16T01:04:58.639Z,17.58
2022-12-16T01:07:45.731Z,18.35
2022-12-16T01:10:32.862Z,16.60
2022-12-16T01:13:20.642Z,17.00
2022-12-16T01:16:07.785Z,16.77
2022-12-16T01:18:56.548Z,16.70
2022-12-16T01:21:43.589Z,16.40
2022-12-16T01:24:30.637Z,16.33
2022-12-16T01:27:17.778Z,17.17
2022-12-16T01:30:06.023Z,16.08
2022-12-16T01:32:53.087Z,16.33
2022-12-16T01:35:56.309Z,15.60
2022-12-16T01:38:44.601Z,16.17
2022-12-16T01:41:31.740Z,13.75
2022-12-16T01:44:21.848Z,15.00
2022-12-16T01:47:16.270Z,13.55
2022-12-16T01:50:11.779Z,13.95
2022-12-16T01:53:04.438Z,13.65
2022-12-16T01:55:55.656Z,13.93
2022-12-16T01:58:43.813Z,12.55
2022-12-16T02:01:31.076Z,13.02
2022-12-16T02:04:18.369Z,12.93
2022-12-16T02:07:05.379Z,11.95
2022-12-16T02:09:53.749Z,12.50
2022-12-16T02:12:52.549Z,12.13
2022-12-16T02:15:59.820Z,12.77
2022-12-16T02:19:10.896Z,12.10
2022-12-16T02:22:26.083Z,11.68
2022-12-16T02:25:41.054Z,11.57
2022-12-16T02:28:46.788Z,11.95
2022-12-16T02:32:23.307Z,12.48
2022-12-16T02:35:18.629Z,11.10
2022-12-16T02:38:20.935Z,11.30
2022-12-16T02:41:17.824Z,11.40
2022-12-16T02:44:08.199Z,12.52
2022-12-16T02:46:56.348Z,12.65
2022-12-16T02:49:51.736Z,12.38
2022-12-16T02:52:38.827Z,12.00
2022-12-16T02:55:37.929Z,13.13
2022-12-16T02:58:43.798Z,12.32
2022-12-16T03:01:42.832Z,11.90
2022-12-16T03:04:49.734Z,11.57
2022-12-16T03:07:41.635Z,12.48
2022-12-16T03:10:35.472Z,12.55
2022-12-16T03:13:23.840Z,12.00
2022-12-16T03:16:14.376Z,11.43
2022-12-16T03:19:08.384Z,10.75
2022-12-16T03:22:11.952Z,10.27
2022-12-16T03:24:59.550Z,9.70
2022-12-16T03:28:03.737Z,10.60
2022-12-16T03:31:00.177Z,9.35
2022-12-16T03:34:03.860Z,9.10
2022-12-16T03:36:55.523Z,9.55
2022-12-16T03:39:47.561Z,9.05
2022-12-16T03:42:36.548Z,7.75
2022-12-16T03:45:27.968Z,7.97
2022-12-16T03:48:17.000Z,8.20
2022-12-16T03:51:04.170Z,8.45
2022-12-16T03:53:51.233Z,7.20
2022-12-16T03:56:38.553Z,7.22
2022-12-16T03:59:26.090Z,7.50
2022-12-16T04:02:13.261Z,7.15
2022-12-16T04:05:00.414Z,6.85
2022-12-16T04:07:47.448Z,7.10
2022-12-16T04:10:53.356Z,6.80
2022-12-16T04:13:59.388Z,6.13
2022-12-16T04:17:05.019Z,6.63
2022-12-16T04:20:10.709Z,6.57
2022-12-16T04:23:16.213Z,7.50
2022-12-16T04:26:03.591Z,6.18
2022-12-16T04:28:50.657Z,5.80
2022-12-16T04:31:37.829Z,6.63
2022-12-16T04:34:29.519Z,6.80
2022-12-16T04:37:35.003Z,6.65
2022-12-16T04:40:40.547Z,6.88
2022-12-16T04:43:46.140Z,6.78
2022-12-16T04:46:51.743Z,7.13
2022-12-16T04:49:57.316Z,6.22
2022-12-16T04:53:03.390Z,6.85
2022-12-16T04:56:09.132Z,5.97
2022-12-16T04:59:14.707Z,6.70
2022-12-16T05:02:20.375Z,6.25
2022-12-16T05:05:05.798Z,5.75
2022-12-16T05:07:51.067Z,5.55
2022-12-16T05:10:36.156Z,7.60
2022-12-16T05:13:21.490Z,6.88
2022-12-16T05:16:06.706Z,6.38
2022-12-16T05:18:52.066Z,6.03
2022-12-16T05:21:37.678Z,6.28
2022-12-16T05:24:23.494Z,6.65
2022-12-16T05:27:08.797Z,6.78
2022-12-16T05:29:54.066Z,5.95
2022-12-16T05:32:39.627Z,6.43
2022-12-16T05:35:24.942Z,5.97
2022-12-16T05:38:10.337Z,6.22
2022-12-16T05:40:55.672Z,6.50
2022-12-16T05:43:41.139Z,6.25
2022-12-16T05:46:26.592Z,6.05
2022-12-16T05:49:11.557Z,5.57
2022-12-16T05:51:56.847Z,6.00
2022-12-16T05:54:41.882Z,7.50
2022-12-16T05:57:27.252Z,7.35
2022-12-16T06:00:32.392Z,7.72
2022-12-16T06:03:17.788Z,8.75
2022-12-16T06:06:03.359Z,9.25
2022-12-16T06:08:49.211Z,11.57
2022-12-16T06:11:34.746Z,12.52
2022-12-16T06:14:20.063Z,13.13
2022-12-16T06:17:05.316Z,13.55
2022-12-16T06:19:50.697Z,12.95
2022-12-16T06:22:35.893Z,14.60
2022-12-16T06:25:21.239Z,13.82
2022-12-16T06:28:12.631Z,13.63
2022-12-16T06:30:57.906Z,14.63
2022-12-16T06:33:43.408Z,14.32
2022-12-16T06:36:28.714Z,15.10
2022-12-16T06:39:13.947Z,13.88
2022-12-16T06:41:59.481Z,14.65
2022-12-16T06:44:45.044Z,17.38
2022-12-16T06:47:30.245Z,17.50
2022-12-16T06:50:16.009Z,17.50
2022-12-16T06:53:02.220Z,15.80
2022-12-16T06:55:48.309Z,15.85
2022-12-16T06:58:34.247Z,16.08
2022-12-16T07:01:19.716Z,15.32
2022-12-16T07:04:05.595Z,14.77
2022-12-16T07:06:51.246Z,16.63
2022-12-16T07:09:36.510Z,17.80
2022-12-16T07:12:21.909Z,17.55
2022-12-16T07:15:07.344Z,18.92
2022-12-16T07:17:52.684Z,16.90
2022-12-16T07:20:38.068Z,16.08
2022-12-16T07:23:23.470Z,16.17
2022-12-16T07:26:08.853Z,16.38
2022-12-16T07:28:54.218Z,16.42
2022-12-16T07:31:39.652Z,16.33
2022-12-16T07:34:24.973Z,16.02
2022-12-16T07:37:10.390Z,18.10
2022-12-16T07:39:55.947Z,14.32
2022-12-16T07:42:42.489Z,17.30
2022-12-16T07:45:29.368Z,16.27
2022-12-16T07:48:14.680Z,15.88
2022-12-16T07:51:00.413Z,17.67
2022-12-16T07:53:46.834Z,21.35
2022-12-16T08:02:02.215Z,19.60
2022-12-16T08:04:47.665Z,17.30
2022-12-16T08:07:33.213Z,17.23
2022-12-16T08:10:18.513Z,18.00
2022-12-16T08:13:22.109Z,85.30
2022-12-16T08:16:10.724Z,23.23
2022-12-16T08:18:56.050Z,17.75
2022-12-16T08:21:41.610Z,31.02
2022-12-16T08:24:26.880Z,17.98
2022-12-16T08:27:12.101Z,19.13
2022-12-16T08:29:57.553Z,17.25
2022-12-16T08:32:43.003Z,16.63
2022-12-16T08:35:28.402Z,18.40
2022-12-16T08:38:15.228Z,17.92
2022-12-16T08:41:02.594Z,17.58
2022-12-16T08:44:05.937Z,18.73
2022-12-16T08:46:51.318Z,17.83
2022-12-16T08:49:36.572Z,18.30
2022-12-16T08:52:22.327Z,17.23
2022-12-16T08:55:07.641Z,19.88
2022-12-16T08:57:53.233Z,20.27
2022-12-16T09:00:40.242Z,20.02
2022-12-16T09:03:25.626Z,17.60
2022-12-16T09:06:10.976Z,17.33
2022-12-16T09:09:10.064Z,17.35
2022-12-16T09:11:55.595Z,16.92
2022-12-16T09:14:41.049Z,17.45
2022-12-16T09:17:26.462Z,17.60
2022-12-16T09:20:11.928Z,18.00
2022-12-16T09:22:56.915Z,17.17
2022-12-16T09:25:42.281Z,16.90
2022-12-16T09:28:27.513Z,17.27
2022-12-16T09:31:12.550Z,17.35
2022-12-16T09:33:57.729Z,17.48
2022-12-16T09:36:42.794Z,17.17
2022-12-16T09:39:28.042Z,17.50
2022-12-16T09:42:22.569Z,19.27
2022-12-16T09:45:16.860Z,17.17
2022-12-16T09:48:28.184Z,18.50
2022-12-16T09:51:16.979Z,19.35
2022-12-16T09:54:03.396Z,17.35
2022-12-16T09:56:55.342Z,21.15
2022-12-16T09:59:48.942Z,22.15
2022-12-16T10:02:37.046Z,16.85
2022-12-16T10:05:28.569Z,16.60
2022-12-16T10:08:22.983Z,15.80
2022-12-16T10:11:11.379Z,16.63
2022-12-16T10:14:00.925Z,15.45
2022-12-16T10:17:01.866Z,17.70
2022-12-16T10:20:09.156Z,16.45
2022-12-16T10:23:03.201Z,17.17
2022-12-16T10:26:04.216Z,17.73
2022-12-16T10:29:02.764Z,17.02
2022-12-16T10:31:48.271Z,15.80
2022-12-16T10:34:38.081Z,18.02
2022-12-16T10:37:23.713Z,18.25
2022-12-16T10:40:17.072Z,15.82
2022-12-16T10:43:28.929Z,16.65
2022-12-16T10:46:15.756Z,15.43
2022-12-16T10:49:01.493Z,15.65
2022-12-16T10:51:48.597Z,16.00
2022-12-16T10:54:40.003Z,16.42
2022-12-16T10:57:49.051Z,16.55
2022-12-16T11:00:40.510Z,16.45
2022-12-16T11:03:49.654Z,16.33
2022-12-16T11:06:47.346Z,16.63
2022-12-16T11:09:47.052Z,16.83
2022-12-16T11:12:42.890Z,16.38
2022-12-16T11:15:50.225Z,16.88
2022-12-16T11:18:39.103Z,16.08
2022-12-16T11:21:44.168Z,16.73
2022-12-16T11:24:36.512Z,16.67
2022-12-16T11:27:24.111Z,15.52
2022-12-16T11:30:35.764Z,16.75
2022-12-16T11:33:46.170Z,16.52
2022-12-16T11:36:42.224Z,16.73
2022-12-16T11:39:34.782Z,16.77
2022-12-16T11:42:20.939Z,16.48
2022-12-16T11:45:14.408Z,17.10
2022-12-16T11:48:05.533Z,17.60
2022-12-16T11:50:55.583Z,18.30
2022-12-16T11:54:03.421Z,17.13
2022-12-16T11:56:55.996Z,17.13
2022-12-16T12:00:17.676Z,16.40
2022-12-16T12:03:13.968Z,17.17
2022-12-16T12:06:38.369Z,16.50
2022-12-16T12:09:30.438Z,17.27
2022-12-16T12:12:31.599Z,17.42
2022-12-16T12:15:32.202Z,17.17
2022-12-16T12:18:36.920Z,17.92
2022-12-16T12:21:25.292Z,17.50
2022-12-16T12:24:25.639Z,17.70
2022-12-16T12:27:23.390Z,17.67
2022-12-16T12:30:16.134Z,17.48
2022-12-16T12:33:22.882Z,18.40
2022-12-16T12:36:19.458Z,18.55
2022-12-16T12:39:28.102Z,18.08
2022-12-16T12:42:29.710Z,20.27
2022-12-16T12:45:22.011Z,19.08
2022-12-16T12:48:27.502Z,19.35
2022-12-16T12:51:26.766Z,19.17
2022-12-16T12:54:34.258Z,18.27
2022-12-16T12:57:22.573Z,18.23
2022-12-16T13:00:24.425Z,18.48
2022-12-16T13:03:22.207Z,18.58
2022-12-16T13:06:08.475Z,19.42
2022-12-16T13:09:05.197Z,18.75
2022-12-16T13:11:50.383Z,19.45
2022-12-16T13:14:51.312Z,18.35
2022-12-16T13:17:40.591Z,19.40
2022-12-16T13:20:50.903Z,19.33
2022-12-16T13:23:51.748Z,19.90
2022-12-16T13:26:39.927Z,20.42
2022-12-16T13:30:02.266Z,19.05
2022-12-16T13:32:47.591Z,19.42
2022-12-16T13:35:36.567Z,19.40
2022-12-16T13:38:48.353Z,19.88
2022-12-16T13:41:45.393Z,19.52
2022-12-16T13:44:51.524Z,18.42
2022-12-16T13:48:09.153Z,19.33
2022-12-16T13:50:58.620Z,18.20
2022-12-16T13:53:48.063Z,19.02
2022-12-16T13:56:36.934Z,19.30
2022-12-16T13:59:34.759Z,19.35
2022-12-16T14:02:41.676Z,18.25
2022-12-16T14:05:43.173Z,18.20
2022-12-16T14:08:36.094Z,18.88
2022-12-16T14:11:26.801Z,18.77
2022-12-16T14:14:29.101Z,18.70
2022-12-16T14:17:18.969Z,18.67
2022-12-16T14:20:25.994Z,18.75
2022-12-16T14:23:46.810Z,18.92
2022-12-16T14:26:23.843Z,19.23
2022-12-16T14:29:09.299Z,20.08
2022-12-16T14:31:56.423Z,19.33
2022-12-16T14:34:49.364Z,20.50
2022-12-16T14:37:39.200Z,20.52
2022-12-16T14:40:38.939Z,19.95
2022-12-16T14:43:31.951Z,21.45
2022-12-16T14:46:17.631Z,20.13
2022-12-16T14:49:06.152Z,22.00
2022-12-16T14:51:56.097Z,20.50
2022-12-16T14:55:02.457Z,22.17
2022-12-16T14:57:50.341Z,19.88
2022-12-16T15:00:37.201Z,20.58
2022-12-16T15:03:35.433Z,21.00
2022-12-16T15:06:26.839Z,20.98
2022-12-16T15:09:22.062Z,21.25
2022-12-16T15:12:10.823Z,21.25
2022-12-16T15:14:58.812Z,21.65
2022-12-16T15:17:47.175Z,22.17
2022-12-16T15:20:43.791Z,21.33
2022-12-16T15:23:42.534Z,21.15
2022-12-16T15:26:35.570Z,20.17
2022-12-16T15:29:20.757Z,21.45
2022-12-16T15:32:05.903Z,21.85
2022-12-16T15:35:07.899Z,20.55
2022-12-16T15:38:04.530Z,20.65
2022-12-16T15:40:52.385Z,21.08
2022-12-16T15:43:43.830Z,20.83
2022-12-16T15:46:39.613Z,20.98
2022-12-16T15:49:36.162Z,20.92
2022-12-16T15:52:21.757Z,21.70
2022-12-16T15:55:13.574Z,20.90
2022-12-16T15:57:58.985Z,19.98
2022-12-16T16:00:45.855Z,20.48
2022-12-16T16:03:49.302Z,20.85
2022-12-16T16:06:41.813Z,20.15
2022-12-16T16:09:41.400Z,20.48
2022-12-16T16:12:29.232Z,21.65
2022-12-16T16:15:14.682Z,20.50
2022-12-16T16:18:00.098Z,19.30
2022-12-16T16:20:45.431Z,20.92
2022-12-16T16:23:31.264Z,20.80
2022-12-16T16:26:17.133Z,21.63
2022-12-16T16:29:02.801Z,18.95
2022-12-16T16:31:48.160Z,18.73
2022-12-16T16:34:33.858Z,20.08
2022-12-16T16:37:19.525Z,19.23
2022-12-16T16:40:04.974Z,19.50
2022-12-16T16:42:50.391Z,19.23
2022-12-16T16:45:35.791Z,19.15
2022-12-16T16:48:28.726Z,18.85
2022-12-16T16:51:15.616Z,19.40
2022-12-16T16:54:01.341Z,20.25
2022-12-16T16:56:49.719Z,19.63
2022-12-16T16:59:35.194Z,18.67
2022-12-16T17:02:20.875Z,18.90
2022-12-16T17:05:23.023Z,18.67
2022-12-16T17:08:09.390Z,19.25
2022-12-16T17:10:54.942Z,18.73
2022-12-16T17:13:40.340Z,20.02
2022-12-16T17:16:31.351Z,19.27
2022-12-16T17:19:17.928Z,18.33
2022-12-16T17:22:03.299Z,18.63
2022-12-16T17:24:53.815Z,19.70
2022-12-16T17:27:42.936Z,19.10
2022-12-16T17:30:43.500Z,18.92
2022-12-16T17:33:33.866Z,18.63
2022-12-16T17:36:20.226Z,18.75
2022-12-16T17:39:06.291Z,19.17
2022-12-16T17:41:53.062Z,19.52
2022-12-16T17:44:38.486Z,18.00
2022-12-16T17:47:23.839Z,19.38
2022-12-16T17:50:09.453Z,19.35
2022-12-16T17:52:54.862Z,19.60
2022-12-16T17:55:39.988Z,20.10
2022-12-16T17:58:25.391Z,20.17
2022-12-16T18:01:10.467Z,20.63
2022-12-16T18:03:56.304Z,19.90
2022-12-16T18:06:41.827Z,19.25
2022-12-16T18:09:27.743Z,19.55
2022-12-16T18:12:13.519Z,19.85
2022-12-16T18:14:58.909Z,19.05
2022-12-16T18:17:44.313Z,18.95
2022-12-16T18:20:29.816Z,19.92
2022-12-16T18:23:15.571Z,18.55
2022-12-16T18:26:01.798Z,18.75
2022-12-16T18:28:47.420Z,19.30
2022-12-16T18:31:33.542Z,20.25
2022-12-16T18:34:19.615Z,19.40
2022-12-16T18:37:06.205Z,18.48
2022-12-16T18:39:51.977Z,18.83
2022-12-16T18:42:37.716Z,18.85
2022-12-16T18:45:23.467Z,18.33
2022-12-16T18:48:09.261Z,17.40
2022-12-16T18:50:56.361Z,18.10
2022-12-16T18:53:42.076Z,16.73
2022-12-16T18:56:28.733Z,17.42
2022-12-16T18:59:14.530Z,16.77
2022-12-16T19:02:00.625Z,17.05
2022-12-16T19:04:47.369Z,15.85
2022-12-16T19:07:33.944Z,16.98
2022-12-16T19:10:20.237Z,16.15
2022-12-16T19:13:05.661Z,16.13
2022-12-16T19:15:54.257Z,16.42
2022-12-16T19:18:39.716Z,15.52
2022-12-16T19:21:25.320Z,16.17
2022-12-16T19:24:11.522Z,14.68
2022-12-16T19:27:02.101Z,16.17
2022-12-16T19:29:48.322Z,16.23
2022-12-16T19:32:33.800Z,15.68
2022-12-16T19:35:19.642Z,17.17
2022-12-16T19:38:04.983Z,15.98
2022-12-16T19:40:50.166Z,17.20
2022-12-16T19:43:35.651Z,16.98
2022-12-16T19:46:21.559Z,16.35
2022-12-16T19:49:07.847Z,17.73
2022-12-16T19:51:56.183Z,17.67
2022-12-16T19:54:41.638Z,17.58
2022-12-16T19:57:27.136Z,17.92
2022-12-16T20:00:12.746Z,18.60
2022-12-16T20:02:58.743Z,19.50
2022-12-16T20:05:44.912Z,18.40
2022-12-16T20:08:32.924Z,18.58
2022-12-16T20:11:26.542Z,19.75
2022-12-16T20:14:18.463Z,19.50
2022-12-16T20:17:04.157Z,20.52
2022-12-16T20:19:49.553Z,20.60
2022-12-16T20:22:34.856Z,22.08
2022-12-16T20:25:20.617Z,21.70
2022-12-16T20:28:06.856Z,22.58
2022-12-16T20:30:53.639Z,24.02
2022-12-16T20:33:42.173Z,23.58
2022-12-16T20:36:29.168Z,23.90
2022-12-16T20:39:15.571Z,24.10
2022-12-16T20:42:01.187Z,25.35
2022-12-16T20:44:46.566Z,24.42
2022-12-16T20:47:31.839Z,25.85
2022-12-16T20:50:17.559Z,26.05
2022-12-16T20:53:03.131Z,25.25
2022-12-16T20:55:48.495Z,26.98
2022-12-16T20:58:38.397Z,26.83
2022-12-16T21:01:24.322Z,26.13
2022-12-16T21:04:13.041Z,26.90
2022-12-16T21:06:58.693Z,27.27
2022-12-16T21:09:44.149Z,26.67
2022-12-16T21:12:34.255Z,27.23
2022-12-16T21:18:06.250Z,24.45
2022-12-16T21:20:51.543Z,28.35
2022-12-16T21:23:37.792Z,28.65
2022-12-16T21:26:23.996Z,30.00
2022-12-16T21:29:09.475Z,28.90
2022-12-16T21:32:14.710Z,29.65
2022-12-16T21:35:00.025Z,29.02
2022-12-16T21:37:45.535Z,28.38
2022-12-16T21:40:31.224Z,28.17
2022-12-16T21:43:16.472Z,28.42
2022-12-16T21:46:01.994Z,28.67
2022-12-16T21:48:47.152Z,29.25
2022-12-16T21:51:32.800Z,27.98
2022-12-16T21:54:18.196Z,26.48
2022-12-16T21:57:03.765Z,28.83
2022-12-16T21:59:49.097Z,28.27
2022-12-16T22:02:34.484Z,28.65
2022-12-16T22:05:20.031Z,28.23
2022-12-16T22:08:05.931Z,27.17
2022-12-16T22:10:51.605Z,25.90
2022-12-16T22:13:37.885Z,25.85
2022-12-16T22:16:23.872Z,25.17
2022-12-16T22:22:10.342Z,24.70
2022-12-16T22:24:56.812Z,25.92
2022-12-16T22:27:42.610Z,24.92
2022-12-16T22:30:28.317Z,25.90
2022-12-16T22:33:13.745Z,25.27
2022-12-16T22:35:59.301Z,24.70
2022-12-16T22:38:44.725Z,26.17
2022-12-16T22:41:30.293Z,25.90
2022-12-16T22:44:15.433Z,26.00
2022-12-16T22:47:00.989Z,27.30
2022-12-16T22:49:46.438Z,25.17
2022-12-16T22:52:32.149Z,26.42
2022-12-16T22:55:17.643Z,28.10
2022-12-16T22:58:03.002Z,27.17
2022-12-16T23:00:48.393Z,26.67
2022-12-16T23:03:35.892Z,25.83
2022-12-16T23:06:21.517Z,27.33
2022-12-16T23:09:07.137Z,25.80
2022-12-16T23:11:56.607Z,28.92
2022-12-16T23:14:43.235Z,26.30
2022-12-16T23:17:29.878Z,27.23
2022-12-16T23:20:15.962Z,26.25
2022-12-16T23:23:01.451Z,25.95
2022-12-16T23:25:47.279Z,27.02
2022-12-16T23:28:32.972Z,26.77
2022-12-16T23:31:18.592Z,26.40
2022-12-16T23:34:04.289Z,28.15
2022-12-16T23:36:49.608Z,27.40
2022-12-16T23:39:35.354Z,28.35
2022-12-16T23:42:20.507Z,27.52
2022-12-16T23:45:05.811Z,27.35
2022-12-16T23:47:51.245Z,27.92
2022-12-16T23:50:37.193Z,28.45
2022-12-16T23:53:28.481Z,28.60
2022-12-16T23:56:15.277Z,27.95
2022-12-16T23:59:00.756Z,27.23
